createdAt,value
2023-03-15T00:00:27.672Z,99.90
2023-03-15T00:02:32.051Z,99.90
2023-03-15T00:04:34.852Z,99.90
2023-03-15T00:06:37.602Z,99.90
2023-03-15T00:08:40.680Z,99.90
2023-03-15T00:10:43.942Z,99.90
2023-03-15T00:12:46.737Z,99.90
2023-03-15T00:14:49.762Z,99.90
2023-03-15T00:16:54.623Z,99.90
2023-03-15T00:18:58.758Z,99.90
2023-03-15T00:21:01.750Z,99.90
2023-03-15T00:23:04.739Z,99.90
2023-03-15T00:25:08.315Z,99.90
2023-03-15T00:27:11.597Z,99.90
2023-03-15T00:29:14.334Z,99.90
2023-03-15T00:31:18.957Z,99.90
2023-03-15T00:33:21.837Z,99.90
2023-03-15T00:35:25.984Z,99.90
2023-03-15T00:37:28.842Z,99.90
2023-03-15T00:39:31.711Z,99.90
2023-03-15T00:41:34.510Z,99.90
2023-03-15T00:43:37.911Z,99.90
2023-03-15T00:45:40.655Z,99.90
2023-03-15T00:47:43.480Z,99.90
2023-03-15T00:49:46.496Z,99.90
2023-03-15T00:51:50.587Z,99.90
2023-03-15T00:53:54.435Z,99.90
2023-03-15T00:55:57.250Z,99.90
2023-03-15T00:58:00.150Z,99.90
2023-03-15T01:00:08.570Z,99.90
2023-03-15T01:02:11.798Z,99.90
2023-03-15T01:04:15.302Z,99.90
2023-03-15T01:06:20.533Z,99.90
2023-03-15T01:08:25.295Z,99.90
2023-03-15T01:10:28.189Z,99.90
2023-03-15T01:12:33.520Z,99.90
2023-03-15T01:14:38.944Z,99.90
2023-03-15T01:16:41.727Z,99.90
2023-03-15T01:18:45.288Z,99.90
2023-03-15T01:20:48.084Z,99.90
2023-03-15T01:22:50.802Z,99.90
2023-03-15T01:24:54.875Z,99.90
2023-03-15T01:26:57.661Z,99.90
2023-03-15T01:29:00.458Z,99.90
2023-03-15T01:31:03.299Z,99.90
2023-03-15T01:33:06.375Z,99.90
2023-03-15T01:35:09.654Z,99.90
2023-03-15T01:37:14.430Z,99.90
2023-03-15T01:39:20.341Z,99.90
2023-03-15T01:41:25.726Z,99.90
2023-03-15T01:43:29.382Z,99.90
2023-03-15T01:46:04.071Z,99.90
2023-03-15T01:48:07.097Z,99.90
2023-03-15T01:50:11.998Z,99.90
2023-03-15T01:52:19.104Z,99.90
2023-03-15T01:54:27.015Z,99.90
2023-03-15T01:56:33.992Z,99.90
2023-03-15T01:58:39.314Z,99.90
2023-03-15T02:00:42.239Z,99.90
2023-03-15T02:02:50.652Z,99.90
2023-03-15T02:04:57.603Z,99.90
2023-03-15T02:07:03.384Z,99.90
2023-03-15T02:09:09.457Z,99.90
2023-03-15T02:11:14.420Z,99.90
2023-03-15T02:13:23.120Z,99.90
2023-03-15T02:15:26.085Z,99.90
2023-03-15T02:17:34.701Z,99.90
2023-03-15T02:19:49.660Z,99.90
2023-03-15T02:22:00.598Z,99.90
2023-03-15T02:24:12.859Z,99.90
2023-03-15T02:26:22.180Z,99.90
2023-03-15T02:28:26.983Z,99.90
2023-03-15T02:30:29.825Z,99.90
2023-03-15T02:32:32.942Z,99.90
2023-03-15T02:34:35.724Z,99.90
2023-03-15T02:36:38.556Z,99.90
2023-03-15T02:38:41.337Z,99.90
2023-03-15T02:40:46.507Z,99.90
2023-03-15T02:42:54.467Z,99.90
2023-03-15T02:44:58.967Z,99.90
2023-03-15T02:47:05.772Z,99.90
2023-03-15T02:49:10.062Z,99.90
2023-03-15T02:51:20.450Z,99.90
2023-03-15T02:53:23.586Z,99.90
2023-03-15T02:55:26.819Z,99.90
2023-03-15T02:57:30.930Z,99.90
2023-03-15T02:59:36.202Z,99.90
2023-03-15T03:01:40.477Z,99.90
2023-03-15T03:03:44.806Z,99.90
2023-03-15T03:05:47.568Z,99.90
2023-03-15T03:07:51.074Z,99.90
2023-03-15T03:09:53.809Z,99.90
2023-03-15T03:11:56.540Z,99.90
2023-03-15T03:13:59.367Z,99.90
2023-03-15T03:16:02.171Z,99.90
2023-03-15T03:18:06.672Z,99.90
2023-03-15T03:20:13.434Z,99.90
2023-03-15T03:22:16.237Z,99.90
2023-03-15T03:24:18.992Z,99.90
2023-03-15T03:26:21.822Z,99.90
2023-03-15T03:28:25.878Z,99.90
2023-03-15T03:30:28.647Z,99.90
2023-03-15T03:32:31.790Z,99.90
2023-03-15T03:34:36.592Z,99.90
2023-03-15T03:36:39.394Z,99.90
2023-03-15T03:38:43.391Z,99.90
2023-03-15T03:40:47.039Z,99.90
2023-03-15T03:42:49.786Z,99.90
2023-03-15T03:44:54.525Z,99.90
2023-03-15T03:46:57.321Z,99.90
2023-03-15T03:49:00.187Z,99.90
2023-03-15T03:51:04.505Z,99.90
2023-03-15T03:53:07.300Z,99.90
2023-03-15T03:55:13.480Z,99.90
2023-03-15T03:57:16.253Z,99.90
2023-03-15T03:59:19.047Z,99.90
2023-03-15T04:01:22.774Z,99.90
2023-03-15T04:03:27.153Z,99.90
2023-03-15T04:05:30.197Z,99.90
2023-03-15T04:07:34.459Z,99.90
2023-03-15T04:09:38.261Z,99.90
2023-03-15T04:11:42.454Z,99.90
2023-03-15T04:13:45.820Z,99.90
2023-03-15T04:15:49.010Z,99.90
2023-03-15T04:17:55.705Z,99.90
2023-03-15T04:19:59.169Z,99.90
2023-03-15T04:22:08.301Z,99.90
2023-03-15T04:24:12.572Z,99.90
2023-03-15T04:26:15.531Z,99.90
2023-03-15T04:28:19.277Z,99.90
2023-03-15T04:30:26.897Z,99.90
2023-03-15T04:32:29.724Z,99.90
2023-03-15T04:34:32.897Z,99.90
2023-03-15T04:36:35.715Z,99.90
2023-03-15T04:38:38.503Z,99.90
2023-03-15T04:40:42.802Z,99.90
2023-03-15T04:42:45.652Z,99.90
2023-03-15T04:44:48.718Z,99.90
2023-03-15T04:46:52.220Z,99.90
2023-03-15T04:48:55.002Z,99.90
2023-03-15T04:50:57.832Z,99.90
2023-03-15T04:53:01.501Z,99.90
2023-03-15T04:55:04.401Z,99.90
2023-03-15T04:57:08.901Z,99.90
2023-03-15T04:59:11.726Z,99.90
2023-03-15T05:01:14.908Z,99.90
2023-03-15T05:03:17.726Z,99.90
2023-03-15T05:05:20.461Z,99.90
2023-03-15T05:07:23.213Z,99.90
2023-03-15T05:09:25.949Z,99.90
2023-03-15T05:11:28.721Z,99.90
2023-03-15T05:13:32.895Z,99.90
2023-03-15T05:15:35.799Z,99.90
2023-03-15T05:17:38.705Z,99.90
2023-03-15T05:19:41.819Z,99.90
2023-03-15T05:21:44.671Z,99.90
2023-03-15T05:23:47.499Z,99.90
2023-03-15T05:25:54.509Z,99.90
2023-03-15T05:27:57.429Z,99.90
2023-03-15T05:30:03.724Z,99.90
2023-03-15T05:32:07.271Z,99.90
2023-03-15T05:34:12.086Z,99.90
2023-03-15T05:36:15.383Z,99.90
2023-03-15T05:38:18.125Z,99.90
2023-03-15T05:40:21.002Z,99.90
2023-03-15T05:42:26.123Z,99.90
2023-03-15T05:44:29.021Z,99.90
2023-03-15T05:46:33.155Z,99.90
2023-03-15T05:48:35.965Z,99.90
2023-03-15T05:50:38.723Z,99.90
2023-03-15T05:52:41.579Z,99.90
2023-03-15T05:54:44.378Z,99.90
2023-03-15T05:56:47.652Z,99.90
2023-03-15T05:58:50.399Z,99.90
2023-03-15T06:00:53.227Z,99.90
2023-03-15T06:02:57.424Z,99.90
2023-03-15T06:05:00.191Z,99.90
2023-03-15T06:07:03.176Z,99.90
2023-03-15T06:09:06.041Z,99.90
2023-03-15T06:11:11.645Z,99.90
2023-03-15T06:13:16.059Z,99.90
2023-03-15T06:15:21.292Z,99.90
2023-03-15T06:17:24.286Z,99.90
2023-03-15T06:19:28.513Z,99.90
2023-03-15T06:21:31.410Z,99.90
2023-03-15T06:23:34.161Z,99.90
2023-03-15T06:25:37.018Z,99.90
2023-03-15T06:27:39.755Z,99.90
2023-03-15T06:29:42.562Z,99.90
2023-03-15T06:31:45.309Z,99.90
2023-03-15T06:33:48.167Z,99.90
2023-03-15T06:35:52.328Z,99.90
2023-03-15T06:37:55.091Z,99.90
2023-03-15T06:39:58.154Z,99.90
2023-03-15T06:42:02.429Z,99.90
2023-03-15T06:44:05.536Z,99.90
2023-03-15T06:46:08.717Z,99.90
2023-03-15T06:48:11.544Z,99.90
2023-03-15T06:50:14.378Z,99.90
2023-03-15T06:52:19.031Z,99.90
2023-03-15T06:54:21.787Z,99.90
2023-03-15T06:56:24.562Z,99.90
2023-03-15T06:58:27.361Z,99.90
2023-03-15T07:00:30.133Z,99.90
2023-03-15T07:02:38.815Z,99.90
2023-03-15T07:04:41.736Z,99.90
2023-03-15T07:06:44.742Z,99.90
2023-03-15T07:08:48.937Z,99.90
2023-03-15T07:10:52.413Z,99.90
2023-03-15T07:12:55.155Z,99.90
2023-03-15T07:14:57.953Z,99.90
2023-03-15T07:17:00.759Z,99.90
2023-03-15T07:19:03.782Z,99.90
2023-03-15T07:21:08.165Z,99.90
2023-03-15T07:23:10.960Z,99.90
2023-03-15T07:25:15.237Z,99.90
2023-03-15T07:27:19.452Z,99.90
2023-03-15T07:29:23.152Z,99.90
2023-03-15T07:31:26.776Z,99.90
2023-03-15T07:33:30.975Z,99.90
2023-03-15T07:35:34.111Z,99.90
2023-03-15T07:37:37.512Z,99.90
2023-03-15T07:39:41.335Z,99.90
2023-03-15T07:41:45.479Z,99.90
2023-03-15T07:43:48.668Z,99.90
2023-03-15T07:45:51.897Z,99.90
2023-03-15T07:47:56.562Z,99.90
2023-03-15T07:49:59.575Z,99.90
2023-03-15T07:52:03.489Z,99.90
2023-03-15T07:54:06.399Z,99.90
2023-03-15T07:56:09.267Z,99.90
2023-03-15T07:58:13.508Z,99.90
2023-03-15T08:00:17.406Z,99.90
2023-03-15T08:02:20.208Z,99.90
2023-03-15T08:04:23.092Z,99.90
2023-03-15T08:06:25.878Z,99.90
2023-03-15T08:08:29.130Z,99.90
2023-03-15T08:10:31.976Z,99.90
2023-03-15T08:12:35.136Z,99.90
2023-03-15T08:14:39.314Z,99.90
2023-03-15T08:16:42.143Z,99.90
2023-03-15T08:18:44.924Z,99.90
2023-03-15T08:20:47.758Z,99.90
2023-03-15T08:22:51.847Z,99.90
2023-03-15T08:24:54.614Z,99.90
2023-03-15T08:26:57.371Z,99.90
2023-03-15T08:29:00.178Z,99.90
2023-03-15T08:31:07.604Z,99.90
2023-03-15T08:33:12.187Z,99.90
2023-03-15T08:35:17.401Z,99.90
2023-03-15T08:37:20.893Z,99.90
2023-03-15T08:39:24.373Z,99.90
2023-03-15T08:41:27.112Z,99.90
2023-03-15T08:43:29.975Z,99.90
2023-03-15T08:45:37.439Z,99.90
2023-03-15T08:47:47.299Z,99.90
2023-03-15T08:49:50.096Z,99.90
2023-03-15T08:51:53.007Z,99.90
2023-03-15T08:53:56.036Z,99.90
2023-03-15T08:55:59.242Z,99.90
2023-03-15T08:58:03.437Z,99.90
2023-03-15T09:00:10.442Z,99.90
2023-03-15T09:02:13.311Z,99.90
2023-03-15T09:04:17.509Z,99.90
2023-03-15T09:06:20.381Z,99.90
2023-03-15T09:08:25.109Z,99.90
2023-03-15T09:10:27.892Z,99.90
2023-03-15T09:12:30.613Z,99.90
2023-03-15T09:14:33.369Z,99.90
2023-03-15T09:16:36.302Z,99.90
2023-03-15T09:18:40.462Z,99.90
2023-03-15T09:20:44.767Z,99.90
2023-03-15T09:22:52.972Z,99.90
2023-03-15T09:24:55.797Z,99.90
2023-03-15T09:26:58.805Z,99.90
2023-03-15T09:29:01.553Z,99.90
2023-03-15T09:31:07.142Z,99.90
2023-03-15T09:33:14.441Z,99.90
2023-03-15T09:35:19.676Z,99.90
2023-03-15T09:37:23.790Z,99.90
2023-03-15T09:39:26.538Z,99.90
2023-03-15T09:41:42.180Z,99.90
2023-03-15T09:44:01.144Z,99.90
2023-03-15T09:46:18.269Z,99.90
2023-03-15T09:48:26.487Z,99.90
2023-03-15T09:50:35.937Z,99.90
2023-03-15T09:52:44.397Z,99.90
2023-03-15T09:54:54.846Z,99.90
2023-03-15T09:56:59.907Z,99.90
2023-03-15T09:59:03.378Z,99.90
2023-03-15T10:01:08.917Z,99.90
2023-03-15T10:03:19.241Z,99.90
2023-03-15T10:05:26.848Z,99.90
2023-03-15T10:07:29.792Z,99.90
2023-03-15T10:09:35.739Z,99.90
2023-03-15T10:11:47.371Z,99.90
2023-03-15T10:14:07.862Z,99.90
2023-03-15T10:16:22.038Z,99.90
2023-03-15T10:18:35.832Z,99.90
2023-03-15T10:20:46.017Z,99.90
2023-03-15T10:22:55.857Z,99.90
2023-03-15T10:25:05.467Z,99.90
2023-03-15T10:27:20.629Z,99.90
2023-03-15T10:29:28.858Z,99.90
2023-03-15T10:31:44.404Z,99.90
2023-03-15T10:33:50.323Z,99.90
2023-03-15T10:36:01.221Z,99.90
2023-03-15T10:38:16.301Z,99.90
2023-03-15T10:40:40.778Z,99.90
2023-03-15T10:42:45.194Z,99.90
2023-03-15T10:44:47.972Z,99.90
2023-03-15T10:47:16.072Z,99.90
2023-03-15T10:49:22.700Z,99.90
2023-03-15T10:51:28.463Z,99.90
2023-03-15T10:53:31.177Z,99.90
2023-03-15T10:55:38.250Z,99.90
2023-03-15T10:57:42.615Z,99.90
2023-03-15T10:59:56.318Z,99.90
2023-03-15T11:02:20.234Z,99.90
2023-03-15T11:04:26.745Z,99.90
2023-03-15T11:06:29.733Z,99.90
2023-03-15T11:08:42.879Z,99.90
2023-03-15T11:10:55.220Z,99.90
2023-03-15T11:13:11.646Z,99.90
2023-03-15T11:15:16.434Z,99.90
2023-03-15T11:17:23.146Z,99.90
2023-03-15T11:19:28.991Z,99.90
2023-03-15T11:21:34.438Z,99.90
2023-03-15T11:23:40.437Z,99.90
2023-03-15T11:25:43.366Z,99.90
2023-03-15T11:27:53.391Z,99.90
2023-03-15T11:30:00.123Z,99.90
2023-03-15T11:32:11.674Z,99.90
2023-03-15T11:34:22.034Z,99.90
2023-03-15T11:36:30.854Z,99.90
2023-03-15T11:38:36.288Z,99.90
2023-03-15T11:40:43.537Z,99.90
2023-03-15T11:42:55.855Z,99.90
2023-03-15T11:45:02.774Z,99.90
2023-03-15T11:47:12.752Z,99.90
2023-03-15T11:49:20.177Z,99.90
2023-03-15T11:51:23.086Z,99.90
2023-03-15T11:53:31.756Z,99.90
2023-03-15T11:55:35.110Z,99.90
2023-03-15T11:57:43.809Z,99.90
2023-03-15T11:59:48.559Z,99.90
2023-03-15T12:01:55.688Z,99.90
2023-03-15T12:04:32.042Z,99.90
2023-03-15T12:06:38.138Z,99.90
2023-03-15T12:08:50.639Z,99.90
2023-03-15T12:10:53.547Z,99.90
2023-03-15T12:13:00.220Z,99.90
2023-03-15T12:15:08.261Z,99.90
2023-03-15T12:17:42.451Z,99.90
2023-03-15T12:19:45.373Z,99.90
2023-03-15T12:21:51.347Z,99.90
2023-03-15T12:24:01.508Z,99.90
2023-03-15T12:26:10.438Z,99.90
2023-03-15T12:28:21.877Z,99.90
2023-03-15T12:30:33.496Z,99.90
2023-03-15T12:32:48.131Z,99.90
2023-03-15T12:34:53.904Z,99.90
2023-03-15T12:37:00.909Z,99.90
2023-03-15T12:39:21.893Z,99.90
2023-03-15T12:41:42.219Z,99.90
2023-03-15T12:43:47.059Z,99.90
2023-03-15T12:45:51.208Z,99.90
2023-03-15T12:48:21.218Z,99.90
2023-03-15T12:50:53.784Z,99.90
2023-03-15T12:53:00.801Z,99.90
2023-03-15T12:55:12.950Z,99.90
2023-03-15T12:57:19.589Z,99.90
2023-03-15T12:59:31.497Z,99.90
2023-03-15T13:01:35.839Z,99.90
2023-03-15T13:03:38.971Z,99.90
2023-03-15T13:06:03.231Z,99.90
2023-03-15T13:08:22.105Z,99.90
2023-03-15T13:10:39.002Z,99.90
2023-03-15T13:12:51.197Z,99.90
2023-03-15T13:14:59.412Z,99.90
2023-03-15T13:17:17.056Z,99.90
2023-03-15T13:19:24.853Z,99.90
2023-03-15T13:21:32.471Z,99.90
2023-03-15T13:23:35.791Z,99.90
2023-03-15T13:25:47.370Z,99.90
2023-03-15T13:27:55.673Z,99.90
2023-03-15T13:29:58.628Z,99.90
2023-03-15T13:32:07.768Z,99.90
2023-03-15T13:34:15.977Z,99.90
2023-03-15T13:36:23.319Z,99.90
2023-03-15T13:38:29.861Z,99.90
2023-03-15T13:40:32.643Z,99.10
2023-03-15T13:42:41.124Z,99.70
2023-03-15T13:44:43.902Z,99.90
2023-03-15T13:46:48.751Z,99.90
2023-03-15T13:48:54.292Z,99.90
2023-03-15T13:51:03.560Z,99.50
2023-03-15T13:53:06.644Z,99.70
2023-03-15T13:55:10.916Z,99.90
2023-03-15T13:57:16.336Z,99.90
2023-03-15T13:59:19.944Z,99.00
2023-03-15T14:01:23.988Z,99.90
2023-03-15T14:03:27.767Z,99.90
2023-03-15T14:05:36.364Z,99.90
2023-03-15T14:07:41.780Z,99.40
2023-03-15T14:09:45.113Z,98.60
2023-03-15T14:12:02.295Z,98.30
2023-03-15T14:14:23.028Z,98.80
2023-03-15T14:16:34.830Z,99.80
2023-03-15T14:18:39.064Z,99.70
2023-03-15T14:20:44.938Z,99.90
2023-03-15T14:22:47.725Z,99.10
2023-03-15T14:24:52.602Z,99.10
2023-03-15T14:26:58.285Z,98.50
2023-03-15T14:29:08.285Z,99.20
2023-03-15T14:31:23.078Z,99.40
2023-03-15T14:33:31.002Z,98.70
2023-03-15T14:35:44.176Z,98.90
2023-03-15T14:37:47.736Z,99.20
2023-03-15T14:39:51.494Z,99.50
2023-03-15T14:41:54.318Z,99.60
2023-03-15T14:43:57.233Z,98.90
2023-03-15T14:46:00.105Z,99.60
2023-03-15T14:48:06.358Z,98.30
2023-03-15T14:50:14.213Z,98.80
2023-03-15T14:52:18.455Z,98.70
2023-03-15T14:54:21.312Z,98.80
2023-03-15T14:56:24.830Z,98.60
2023-03-15T14:58:27.635Z,99.10
2023-03-15T15:00:31.058Z,98.60
2023-03-15T15:02:34.664Z,99.10
2023-03-15T15:04:39.383Z,98.30
2023-03-15T15:06:52.526Z,97.90
2023-03-15T15:08:58.669Z,98.10
2023-03-15T15:11:02.724Z,97.70
2023-03-15T15:13:07.292Z,97.20
2023-03-15T15:15:16.985Z,97.20
2023-03-15T15:17:19.727Z,97.30
2023-03-15T15:19:22.479Z,97.60
2023-03-15T15:21:30.654Z,97.30
2023-03-15T15:23:54.991Z,97.30
2023-03-15T15:26:03.820Z,97.30
2023-03-15T15:28:06.672Z,97.80
2023-03-15T15:30:16.403Z,98.00
2023-03-15T15:32:19.353Z,97.40
2023-03-15T15:34:22.194Z,97.20
2023-03-15T15:36:31.003Z,97.10
2023-03-15T15:38:38.552Z,97.50
2023-03-15T15:40:42.519Z,97.00
2023-03-15T15:42:48.748Z,97.20
2023-03-15T15:44:51.574Z,96.50
2023-03-15T15:46:54.618Z,97.30
2023-03-15T15:48:58.653Z,97.00
2023-03-15T15:51:01.696Z,97.20
2023-03-15T15:53:06.849Z,97.30
2023-03-15T15:55:12.653Z,97.30
2023-03-15T15:57:16.092Z,96.80
2023-03-15T15:59:20.320Z,96.90
2023-03-15T16:01:23.547Z,97.40
2023-03-15T16:03:26.384Z,97.20
2023-03-15T16:05:32.827Z,97.70
2023-03-15T16:07:35.684Z,97.90
2023-03-15T16:09:40.253Z,97.60
2023-03-15T16:11:44.573Z,97.50
2023-03-15T16:13:49.034Z,97.60
2023-03-15T16:15:53.798Z,97.30
2023-03-15T16:17:56.849Z,97.60
2023-03-15T16:19:59.686Z,97.40
2023-03-15T16:22:02.535Z,97.80
2023-03-15T16:24:09.904Z,97.50
2023-03-15T16:26:16.282Z,97.80
2023-03-15T16:28:19.250Z,98.10
2023-03-15T16:30:24.357Z,98.50
2023-03-15T16:32:42.884Z,98.70
2023-03-15T16:34:46.595Z,99.00
2023-03-15T16:36:54.663Z,99.40
2023-03-15T16:38:57.456Z,99.60
2023-03-15T16:41:01.693Z,99.80
2023-03-15T16:43:06.154Z,99.90
2023-03-15T16:45:14.026Z,99.90
2023-03-15T16:47:16.801Z,99.90
2023-03-15T16:49:20.903Z,99.90
2023-03-15T16:51:23.847Z,99.90
2023-03-15T16:53:26.610Z,99.90
2023-03-15T16:55:33.775Z,99.90
2023-03-15T16:57:36.841Z,99.90
2023-03-15T16:59:39.565Z,99.90
2023-03-15T17:01:42.480Z,99.90
2023-03-15T17:03:46.459Z,99.90
2023-03-15T17:05:50.644Z,99.90
2023-03-15T17:07:55.483Z,99.90
2023-03-15T17:09:58.707Z,99.90
2023-03-15T17:12:01.819Z,99.90
2023-03-15T17:14:05.863Z,99.90
2023-03-15T17:16:13.870Z,99.90
2023-03-15T17:18:18.811Z,99.90
2023-03-15T17:20:28.135Z,99.90
2023-03-15T17:22:32.213Z,99.90
2023-03-15T17:24:35.414Z,99.90
2023-03-15T17:26:39.007Z,99.90
2023-03-15T17:28:43.671Z,99.90
2023-03-15T17:30:46.476Z,99.90
2023-03-15T17:32:49.657Z,99.90
2023-03-15T17:34:52.646Z,99.90
2023-03-15T17:36:55.864Z,99.90
2023-03-15T17:39:00.066Z,99.90
2023-03-15T17:41:03.359Z,99.90
2023-03-15T17:43:07.676Z,99.90
2023-03-15T17:45:16.526Z,99.90
2023-03-15T17:47:19.333Z,99.90
2023-03-15T17:49:22.118Z,99.90
2023-03-15T17:51:27.177Z,99.90
2023-03-15T17:53:30.012Z,99.90
2023-03-15T17:55:35.293Z,99.90
2023-03-15T17:57:40.391Z,99.90
2023-03-15T17:59:45.743Z,99.90
2023-03-15T18:01:48.783Z,99.90
2023-03-15T18:03:52.512Z,99.90
2023-03-15T18:05:59.688Z,99.90
2023-03-15T18:08:03.761Z,99.90
2023-03-15T18:10:07.651Z,99.90
2023-03-15T18:12:14.918Z,99.90
2023-03-15T18:14:18.754Z,99.90
2023-03-15T18:16:21.582Z,99.90
2023-03-15T18:18:24.394Z,99.90
2023-03-15T18:20:28.427Z,99.90
2023-03-15T18:22:31.242Z,99.90
2023-03-15T18:24:34.506Z,99.90
2023-03-15T18:26:37.332Z,99.90
2023-03-15T18:28:41.750Z,99.90
2023-03-15T18:30:45.351Z,99.90
2023-03-15T18:32:48.789Z,99.90
2023-03-15T18:34:51.686Z,99.90
2023-03-15T18:36:54.552Z,99.90
2023-03-15T18:38:57.468Z,99.90
2023-03-15T18:41:00.749Z,99.90
2023-03-15T18:43:05.305Z,99.90
2023-03-15T18:45:17.013Z,99.90
2023-03-15T18:47:20.773Z,99.90
2023-03-15T18:49:23.563Z,99.90
2023-03-15T18:51:28.099Z,99.90
2023-03-15T18:53:31.618Z,99.90
2023-03-15T18:55:34.788Z,99.90
2023-03-15T18:57:41.013Z,99.90
2023-03-15T18:59:43.733Z,99.90
2023-03-15T19:01:47.828Z,99.90
2023-03-15T19:03:50.805Z,99.90
2023-03-15T19:05:53.938Z,99.90
2023-03-15T19:07:57.148Z,99.90
2023-03-15T19:09:59.878Z,99.90
2023-03-15T19:12:03.058Z,99.90
2023-03-15T19:14:06.018Z,99.90
2023-03-15T19:16:09.110Z,99.90
2023-03-15T19:18:13.222Z,99.90
2023-03-15T19:20:18.320Z,99.90
2023-03-15T19:22:21.301Z,99.90
2023-03-15T19:24:24.063Z,99.90
2023-03-15T19:26:26.850Z,99.90
2023-03-15T19:28:30.190Z,99.90
2023-03-15T19:30:33.137Z,99.90
2023-03-15T19:32:36.131Z,99.90
2023-03-15T19:34:40.318Z,99.90
2023-03-15T19:36:43.063Z,99.90
2023-03-15T19:38:46.423Z,99.90
2023-03-15T19:40:50.335Z,99.90
2023-03-15T19:42:53.383Z,99.90
2023-03-15T19:44:56.200Z,99.90
2023-03-15T19:46:59.003Z,99.90
2023-03-15T19:49:02.212Z,99.90
2023-03-15T19:51:06.818Z,99.90
2023-03-15T19:53:09.601Z,99.90
2023-03-15T19:55:12.593Z,99.90
2023-03-15T19:57:15.366Z,99.90
2023-03-15T19:59:18.319Z,99.90
2023-03-15T20:01:21.152Z,99.90
2023-03-15T20:03:25.044Z,99.90
2023-03-15T20:05:27.814Z,99.90
2023-03-15T20:07:32.249Z,99.90
2023-03-15T20:09:41.065Z,99.90
2023-03-15T20:11:44.223Z,99.90
2023-03-15T20:13:47.490Z,99.90
2023-03-15T20:15:50.449Z,99.90
2023-03-15T20:17:53.884Z,99.90
2023-03-15T20:19:56.620Z,99.90
2023-03-15T20:21:59.661Z,99.90
2023-03-15T20:24:04.535Z,99.90
2023-03-15T20:26:10.587Z,99.90
2023-03-15T20:28:13.491Z,99.90
2023-03-15T20:30:17.352Z,99.90
2023-03-15T20:32:20.073Z,99.90
2023-03-15T20:34:22.880Z,99.90
2023-03-15T20:36:25.663Z,99.90
2023-03-15T20:38:29.313Z,99.90
2023-03-15T20:40:33.772Z,99.90
2023-03-15T20:42:36.739Z,99.90
2023-03-15T20:44:41.401Z,99.90
2023-03-15T20:46:44.688Z,99.90
2023-03-15T20:48:47.477Z,99.90
2023-03-15T20:50:51.886Z,99.90
2023-03-15T20:52:55.174Z,99.90
2023-03-15T20:55:01.683Z,99.90
2023-03-15T20:57:06.984Z,99.90
2023-03-15T20:59:09.945Z,99.90
2023-03-15T21:01:14.799Z,99.90
2023-03-15T21:03:18.318Z,99.90
2023-03-15T21:05:21.079Z,99.90
2023-03-15T21:07:23.821Z,99.90
2023-03-15T21:09:26.836Z,99.90
2023-03-15T21:11:30.394Z,99.90
2023-03-15T21:13:35.398Z,99.90
2023-03-15T21:15:45.733Z,99.90
2023-03-15T21:17:49.644Z,99.90
2023-03-15T21:19:53.413Z,99.90
2023-03-15T21:21:56.908Z,99.90
2023-03-15T21:23:59.717Z,99.90
2023-03-15T21:26:04.668Z,99.90
2023-03-15T21:28:07.398Z,99.90
2023-03-15T21:30:14.299Z,99.90
2023-03-15T21:32:17.041Z,99.90
2023-03-15T21:34:19.839Z,99.90
2023-03-15T21:36:22.758Z,99.90
2023-03-15T21:38:26.139Z,99.90
2023-03-15T21:40:28.994Z,99.90
2023-03-15T21:42:31.765Z,99.90
2023-03-15T21:44:34.615Z,99.90
2023-03-15T21:46:38.926Z,99.90
2023-03-15T21:48:42.565Z,99.90
2023-03-15T21:50:45.715Z,99.90
2023-03-15T21:52:48.445Z,99.90
2023-03-15T21:54:51.511Z,99.90
2023-03-15T21:56:54.405Z,99.90
2023-03-15T21:58:57.149Z,99.90
2023-03-15T22:01:01.137Z,99.90
2023-03-15T22:03:05.381Z,99.90
2023-03-15T22:05:08.825Z,99.90
2023-03-15T22:07:12.746Z,99.90
2023-03-15T22:09:15.468Z,99.90
2023-03-15T22:11:18.193Z,99.90
2023-03-15T22:13:21.089Z,99.90
2023-03-15T22:15:23.885Z,99.90
2023-03-15T22:17:28.805Z,99.90
2023-03-15T22:19:33.685Z,99.90
2023-03-15T22:21:36.407Z,99.90
2023-03-15T22:23:39.284Z,99.90
2023-03-15T22:25:42.036Z,99.90
2023-03-15T22:27:45.435Z,99.90
2023-03-15T22:29:48.206Z,99.90
2023-03-15T22:31:51.504Z,99.90
2023-03-15T22:33:54.429Z,99.90
2023-03-15T22:35:59.978Z,99.90
2023-03-15T22:38:10.470Z,99.90
2023-03-15T22:40:15.046Z,99.90
2023-03-15T22:42:17.878Z,99.90
2023-03-15T22:44:20.893Z,99.90
2023-03-15T22:46:23.604Z,99.90
2023-03-15T22:48:26.429Z,99.90
2023-03-15T22:50:29.370Z,99.90
2023-03-15T22:52:33.570Z,99.90
2023-03-15T22:54:36.266Z,99.90
2023-03-15T22:56:40.907Z,99.90
2023-03-15T22:58:43.974Z,99.90
2023-03-15T23:00:47.014Z,99.90
2023-03-15T23:02:49.987Z,99.90
2023-03-15T23:04:53.051Z,99.90
2023-03-15T23:06:55.812Z,99.90
2023-03-15T23:09:00.160Z,99.90
2023-03-15T23:11:03.743Z,99.90
2023-03-15T23:13:06.495Z,99.90
2023-03-15T23:15:11.921Z,99.90
2023-03-15T23:17:14.690Z,99.90
2023-03-15T23:19:17.503Z,99.90
2023-03-15T23:21:20.314Z,99.90
2023-03-15T23:23:23.960Z,99.90
2023-03-15T23:25:29.022Z,99.90
2023-03-15T23:27:31.843Z,99.90
2023-03-15T23:29:47.143Z,99.90
2023-03-15T23:31:56.810Z,99.90
2023-03-15T23:33:59.556Z,99.90
2023-03-15T23:36:02.941Z,99.90
2023-03-15T23:38:05.929Z,99.90
2023-03-15T23:40:14.014Z,99.90
2023-03-15T23:42:18.128Z,99.90
2023-03-15T23:44:20.854Z,99.90
2023-03-15T23:46:24.596Z,99.90
2023-03-15T23:48:28.000Z,99.90
2023-03-15T23:50:31.110Z,99.90
2023-03-15T23:52:34.260Z,99.90
2023-03-15T23:54:41.107Z,99.90
2023-03-15T23:56:44.283Z,99.90
2023-03-15T23:58:48.422Z,99.90
